Time;durP1;ratioP1;P1;durP2;ratioP2;P2;SDS_P1;SDS_P2;PMS_P1;PMS_P2;Temp;Humidity;BMP_temperature;BMP_pressure;BME280_temperature;BME280_humidity;BME280_pressure;Samples;Min_cycle;Max_cycle;Signal;HPM_P1;HPM_P2
2024/03/20 00:00:19;;;;;;;0.20;0.20;;;;;;;5.52;56.47;101647.28;15539267;28;20517;-48
2024/03/20 00:07:54;;;;;;;0.13;0.13;;;;;;;5.85;56.78;101640.38;15537189;28;20084;-47
2024/03/20 00:15:29;;;;;;;0.25;0.25;;;;;;;5.98;55.63;101641.81;15540026;28;20418;-48
2024/03/20 00:23:05;;;;;;;0.40;0.40;;;;;;;5.91;55.41;101635.41;15538810;28;20096;-47
2024/03/20 00:30:41;;;;;;;0.10;0.10;;;;;;;5.74;56.66;101614.00;15544083;28;20491;-47
2024/03/20 00:38:16;;;;;;;0.22;0.17;;;;;;;5.61;56.14;101617.06;15534103;28;20530;-47
2024/03/20 00:45:53;;;;;;;0.00;0.00;;;;;;;6.39;53.96;101611.69;15542530;28;20077;-48
2024/03/20 00:53:27;;;;;;;0.45;0.45;;;;;;;6.30;53.97;101598.47;15535440;28;20100;-48
2024/03/20 01:01:02;;;;;;;2.03;1.00;;;;;;;6.63;53.55;101604.75;15536812;28;20047;-47
2024/03/20 01:08:40;;;;;;;0.17;0.17;;;;;;;6.52;53.83;101613.03;15532703;28;20042;-51
2024/03/20 01:16:17;;;;;;;0.90;0.90;;;;;;;6.29;56.12;101604.78;15535216;28;20056;-51
2024/03/20 01:23:52;;;;;;;0.03;0.03;;;;;;;6.21;56.29;101594.13;15519934;28;20505;-48
2024/03/20 01:31:27;;;;;;;0.30;0.30;;;;;;;6.14;55.07;101585.91;15544998;28;20450;-48
2024/03/20 01:39:02;;;;;;;0.20;0.20;;;;;;;6.01;55.76;101585.50;15536370;28;20208;-48
2024/03/20 01:46:37;;;;;;;0.00;0.00;;;;;;;5.78;55.22;101591.38;15537406;28;20312;-47
2024/03/20 01:54:14;;;;;;;0.40;0.40;;;;;;;5.28;56.10;101583.22;15544741;28;20048;-49
2024/03/20 02:01:49;;;;;;;0.43;0.43;;;;;;;5.50;55.96;101589.84;15528229;28;20092;-49
2024/03/20 02:09:22;;;;;;;1.02;0.52;;;;;;;5.43;56.40;101584.31;15546753;28;20045;-47
2024/03/20 02:16:57;;;;;;;0.98;0.50;;;;;;;5.09;57.67;101590.41;15552045;28;20096;-48
2024/03/20 02:24:32;;;;;;;0.20;0.20;;;;;;;4.76;58.71;101588.44;15538105;28;20069;-50
2024/03/20 02:32:07;;;;;;;0.57;0.40;;;;;;;4.71;58.97;101582.69;15545298;28;20046;-46
2024/03/20 02:39:42;;;;;;;0.00;0.00;;;;;;;4.56;59.36;101585.06;15553665;28;20042;-48
2024/03/20 02:47:15;;;;;;;2.30;0.68;;;;;;;4.44;60.11;101583.59;15536520;28;20046;-50
2024/03/20 02:54:50;;;;;;;;;;;;;;;4.04;62.05;101590.94;15552879;28;20307;-50
2024/03/20 03:02:25;;;;;;;2.55;2.35;;;;;;;4.30;61.41;101593.75;15532857;28;20017;-47
2024/03/20 03:09:59;;;;;;;2.90;1.15;;;;;;;4.49;62.49;101587.47;15548271;28;20108;-48
2024/03/20 03:17:37;;;;;;;0.30;0.30;;;;;;;4.61;62.31;101583.59;15543102;28;20077;-50
2024/03/20 03:25:13;;;;;;;0.50;0.50;;;;;;;4.71;60.40;101588.03;15547101;28;20717;-47
2024/03/20 03:32:47;;;;;;;0.00;0.00;;;;;;;4.26;61.76;101584.41;15529125;28;20052;-49
2024/03/20 03:40:23;;;;;;;0.17;0.17;;;;;;;4.86;60.41;101598.00;15529921;28;20057;-48
2024/03/20 03:47:58;;;;;;;0.00;0.00;;;;;;;4.39;62.08;101597.34;15547900;28;20100;-52
2024/03/20 03:55:33;;;;;;;0.52;0.45;;;;;;;4.08;63.26;101599.44;15548428;28;20224;-48
2024/03/20 04:03:07;;;;;;;1.58;1.42;;;;;;;4.12;63.62;101597.34;15548131;28;20084;-46
2024/03/20 04:10:42;;;;;;;0.65;0.60;;;;;;;4.56;61.48;101603.66;15547707;28;20054;-48
2024/03/20 04:18:17;;;;;;;0.20;0.20;;;;;;;4.30;62.59;101591.09;15554389;23;20056;-48
2024/03/20 04:25:56;;;;;;;0.95;0.93;;;;;;;4.52;62.12;101589.84;15502107;28;20367;-50
2024/03/20 04:33:31;;;;;;;0.38;0.38;;;;;;;4.29;62.66;101591.22;15542541;28;20057;-44
2024/03/20 04:41:08;;;;;;;0.10;0.10;;;;;;;4.77;62.48;101592.75;15533551;28;20219;-49
2024/03/20 04:48:42;;;;;;;1.65;1.55;;;;;;;4.42;64.12;101599.69;15534412;28;20062;-44
2024/03/20 04:56:17;;;;;;;0.00;0.00;;;;;;;4.84;62.81;101604.44;15541865;28;20096;-47
2024/03/20 05:03:53;;;;;;;0.30;0.30;;;;;;;4.30;64.05;101595.56;15542371;28;20495;-44
2024/03/20 05:11:28;;;;;;;0.25;0.25;;;;;;;4.31;64.11;101602.56;15542860;28;20117;-46
2024/03/20 05:19:02;;;;;;;1.10;0.95;;;;;;;4.79;62.74;101598.75;15541392;28;20046;-48
2024/03/20 05:26:37;;;;;;;;;;;;;;;5.23;61.53;101594.34;15538770;28;20549;-50
2024/03/20 05:34:11;;;;;;;0.70;0.70;;;;;;;4.94;62.00;101597.22;15534930;28;20294;-46
2024/03/20 05:41:46;;;;;;;1.55;0.90;;;;;;;4.41;64.01;101592.69;15549661;28;20050;-52
2024/03/20 05:49:23;;;;;;;0.30;0.30;;;;;;;4.08;65.68;101584.34;15545418;28;20041;-50
2024/03/20 05:56:58;;;;;;;0.47;0.47;;;;;;;4.40;65.50;101595.53;15544097;28;20529;-50
2024/03/20 06:04:31;;;;;;;0.10;0.10;;;;;;;4.99;63.30;101594.97;15551203;28;20137;-49
2024/03/20 06:12:17;;;;;;;0.55;0.55;;;;;;;4.70;64.57;101607.63;15550990;28;20076;-48
2024/03/20 06:19:51;;;;;;;0.08;0.08;;;;;;;5.37;62.42;101623.06;15546254;28;20049;-47
2024/03/20 06:27:26;;;;;;;0.10;0.10;;;;;;;5.18;61.79;101611.75;15548853;28;20041;-46
2024/03/20 06:35:03;;;;;;;1.48;0.85;;;;;;;5.12;63.12;101610.53;15543426;28;20060;-46
2024/03/20 06:42:39;;;;;;;0.10;0.10;;;;;;;5.14;63.23;101605.06;15525505;28;20049;-48
2024/03/20 06:50:13;;;;;;;0.25;0.25;;;;;;;6.01;60.43;101597.00;15541256;28;20108;-52
2024/03/20 06:57:48;;;;;;;0.20;0.20;;;;;;;7.13;58.86;101604.66;15548388;28;20046;-47
2024/03/20 07:05:22;;;;;;;0.55;0.55;;;;;;;7.90;55.34;101613.06;15546796;28;20060;-45
2024/03/20 07:12:58;;;;;;;0.00;0.00;;;;;;;7.49;55.81;101617.66;15533115;28;20048;-52
2024/03/20 07:20:32;;;;;;;1.40;0.50;;;;;;;6.95;58.65;101616.47;15547352;28;20057;-47
2024/03/20 07:28:08;;;;;;;1.98;1.80;;;;;;;8.34;54.23;101615.25;15546158;28;20049;-47
2024/03/20 07:35:47;;;;;;;0.85;0.85;;;;;;;9.77;51.79;101617.44;15537041;28;20067;-45
2024/03/20 07:43:23;;;;;;;3.42;1.10;;;;;;;9.97;48.72;101618.53;15546171;28;20140;-46
2024/03/20 07:50:57;;;;;;;0.25;0.25;;;;;;;10.39;46.04;101617.88;15525957;28;20100;-49
2024/03/20 07:58:32;;;;;;;1.45;0.75;;;;;;;10.37;46.40;101622.63;15543611;28;20357;-48
2024/03/20 08:06:06;;;;;;;1.65;0.40;;;;;;;11.07;45.06;101631.88;15545900;28;20121;-45
2024/03/20 08:13:41;;;;;;;0.85;0.70;;;;;;;11.58;44.02;101629.03;15544918;28;20069;-45
2024/03/20 08:21:15;;;;;;;1.15;0.60;;;;;;;12.72;40.12;101629.47;15545316;28;20403;-43
2024/03/20 08:28:51;;;;;;;4.60;2.75;;;;;;;12.58;40.71;101641.22;15544394;28;20116;-50
2024/03/20 08:36:25;;;;;;;1.13;0.38;;;;;;;13.45;37.86;101639.59;15544864;28;20038;-50
2024/03/20 08:44:03;;;;;;;15.13;1.55;;;;;;;13.88;38.62;101642.66;15543342;28;20046;-52
2024/03/20 08:51:37;;;;;;;0.65;0.55;;;;;;;14.24;38.72;101635.94;15535686;28;20026;-52
2024/03/20 08:59:13;;;;;;;1.17;1.13;;;;;;;14.01;36.96;101620.22;15541923;28;20097;-50
2024/03/20 09:06:47;;;;;;;12.07;3.00;;;;;;;13.11;38.60;101625.22;15542945;28;20136;-51
2024/03/20 09:14:23;;;;;;;0.65;0.63;;;;;;;13.53;38.26;101632.13;15552438;28;20069;-48
2024/03/20 09:21:59;;;;;;;0.75;0.75;;;;;;;14.75;35.95;101627.03;15539227;28;20048;-49
2024/03/20 09:29:34;;;;;;;0.57;0.57;;;;;;;16.48;32.92;101620.94;15551977;28;20045;-47
2024/03/20 09:37:08;;;;;;;0.40;0.40;;;;;;;16.94;32.04;101608.66;15553834;28;20569;-47
2024/03/20 09:44:47;;;;;;;0.30;0.30;;;;;;;16.14;33.08;101614.25;15554704;28;20125;-48
2024/03/20 09:52:22;;;;;;;0.60;0.60;;;;;;;16.69;32.74;101604.16;15550427;28;20092;-50
2024/03/20 09:59:58;;;;;;;0.32;0.32;;;;;;;16.38;33.93;101597.09;15553050;28;20305;-46
2024/03/20 10:07:31;;;;;;;1.25;0.90;;;;;;;18.26;33.06;101589.22;15552220;28;20099;-50
2024/03/20 10:15:11;;;;;;;2.22;0.82;;;;;;;18.00;32.89;101588.72;15553179;28;20038;-50
2024/03/20 10:22:45;;;;;;;1.48;0.85;;;;;;;18.01;33.98;101576.78;15619266;23;20037;-55
2024/03/20 10:30:22;;;;;;;1.10;1.00;;;;;;;18.38;34.87;101575.63;15563610;28;20045;-51
2024/03/20 10:37:58;;;;;;;2.50;1.52;;;;;;;18.01;34.56;101562.38;15532889;28;20046;-52
2024/03/20 10:45:33;;;;;;;1.05;0.68;;;;;;;18.81;34.12;101556.06;15549746;28;20081;-52
2024/03/20 10:53:08;;;;;;;2.20;0.82;;;;;;;19.06;33.69;101548.31;15549265;28;20103;-49
2024/03/20 11:00:47;;;;;;;0.40;0.30;;;;;;;18.66;34.70;101550.31;15547747;28;20052;-51
2024/03/20 11:08:21;;;;;;;2.08;1.13;;;;;;;19.32;33.41;101546.84;15549911;28;20041;-53
2024/03/20 11:15:59;;;;;;;0.55;0.55;;;;;;;18.49;35.75;101550.28;15550000;28;20088;-51
2024/03/20 11:23:33;;;;;;;3.17;1.90;;;;;;;19.29;33.97;101543.78;15560520;28;20048;-49
2024/03/20 11:31:10;;;;;;;1.02;0.40;;;;;;;19.16;34.54;101539.50;15560750;28;20046;-50
2024/03/20 11:38:45;;;;;;;0.70;0.40;;;;;;;19.71;34.10;101522.38;15532058;28;20212;-50
2024/03/20 11:46:21;;;;;;;0.93;0.90;;;;;;;19.66;35.60;101525.03;15547146;28;20506;-49
2024/03/20 11:53:55;;;;;;;1.02;0.82;;;;;;;19.99;33.94;101517.81;15539780;28;20446;-48
2024/03/20 12:01:30;;;;;;;0.75;0.75;;;;;;;20.11;33.02;101513.88;15520905;28;20419;-49
2024/03/20 12:09:14;;;;;;;1.58;1.48;;;;;;;20.60;33.48;101505.69;15549338;28;20034;-52
2024/03/20 12:16:53;;;;;;;0.93;0.90;;;;;;;20.77;32.39;101493.84;15549307;28;20034;-48
2024/03/20 12:24:28;;;;;;;0.60;0.60;;;;;;;20.99;32.02;101482.84;15561834;28;20044;-49
2024/03/20 12:32:03;;;;;;;0.47;0.47;;;;;;;20.42;32.55;101478.75;15555960;28;20044;-49
2024/03/20 12:39:37;;;;;;;0.63;0.63;;;;;;;20.73;32.44;101477.16;15544687;28;20068;-52
2024/03/20 12:47:12;;;;;;;1.83;1.50;;;;;;;20.93;31.37;101470.22;15541428;28;20503;-55
2024/03/20 12:54:49;;;;;;;2.60;1.60;;;;;;;20.45;32.34;101456.44;15544310;28;20408;-51
2024/03/20 13:02:24;;;;;;;1.23;0.88;;;;;;;21.34;30.33;101454.97;15531564;28;20132;-56
2024/03/20 13:09:59;;;;;;;5.10;1.00;;;;;;;21.75;30.38;101458.72;15533144;28;20098;-54
2024/03/20 13:17:36;;;;;;;1.75;0.93;;;;;;;20.91;31.38;101448.66;15549900;28;20517;-56
2024/03/20 13:25:16;;;;;;;1.17;1.02;;;;;;;21.89;29.85;101457.13;15552674;28;20041;-53
2024/03/20 13:32:54;;;;;;;0.68;0.45;;;;;;;21.36;32.37;101441.88;15551851;28;20463;-54
2024/03/20 13:40:36;;;;;;;3.67;1.55;;;;;;;21.91;29.82;101440.44;15544889;28;20482;-55
2024/03/20 13:48:11;;;;;;;0.33;0.27;;;;;;;20.85;31.66;101436.06;15537355;28;20133;-53
2024/03/20 13:55:45;;;;;;;5.38;1.08;;;;;;;21.31;31.07;101437.22;15552433;28;20079;-54
2024/03/20 14:03:22;;;;;;;2.95;1.15;;;;;;;20.07;32.35;101427.44;15556664;28;20426;-52
2024/03/20 14:10:58;;;;;;;0.55;0.30;;;;;;;19.81;33.21;101421.69;15545836;28;20038;-54
2024/03/20 14:18:33;;;;;;;0.20;0.20;;;;;;;19.90;33.05;101426.69;15545062;28;20155;-54
2024/03/20 14:26:08;;;;;;;1.58;0.80;;;;;;;20.20;32.96;101423.47;15553271;28;20034;-55
2024/03/20 14:33:43;;;;;;;0.40;0.30;;;;;;;19.08;34.74;101421.00;15543061;28;20038;-56
2024/03/20 14:41:19;;;;;;;1.20;0.85;;;;;;;19.32;34.42;101421.63;15519784;28;20042;-52
2024/03/20 14:48:57;;;;;;;0.10;0.10;;;;;;;19.46;34.17;101413.91;15537189;28;20101;-53
2024/03/20 14:56:30;;;;;;;1.35;0.98;;;;;;;19.24;34.73;101400.25;15554405;28;20049;-53
2024/03/20 15:04:06;;;;;;;6.43;0.82;;;;;;;18.61;35.28;101410.47;15517328;28;20046;-55
2024/03/20 15:11:43;;;;;;;0.38;0.38;;;;;;;18.58;35.24;101410.97;15554745;28;20046;-55
2024/03/20 15:19:19;;;;;;;0.60;0.60;;;;;;;18.36;35.56;101408.16;15539816;28;20046;-53
2024/03/20 15:26:57;;;;;;;0.52;0.52;;;;;;;18.32;36.03;101396.09;15552174;28;20046;-56
2024/03/20 15:34:36;;;;;;;0.38;0.38;;;;;;;18.84;35.65;101398.63;15543033;28;20435;-50
2024/03/20 15:42:13;;;;;;;0.22;0.22;;;;;;;18.70;35.68;101396.47;15536690;28;20038;-52
2024/03/20 15:49:48;;;;;;;0.35;0.22;;;;;;;18.62;36.46;101389.53;15535823;28;20065;-50
2024/03/20 15:57:26;;;;;;;0.80;0.80;;;;;;;18.28;37.57;101388.72;15547593;28;20556;-54
2024/03/20 16:05:02;;;;;;;0.98;0.47;;;;;;;18.15;37.45;101387.13;15536233;28;20666;-53
2024/03/20 16:12:40;;;;;;;0.15;0.15;;;;;;;17.99;38.85;101387.91;15544406;28;20088;-53
2024/03/20 16:20:18;;;;;;;1.95;1.15;;;;;;;17.66;37.84;101391.31;15534926;23;20144;-46
2024/03/20 16:27:53;;;;;;;0.98;0.93;;;;;;;17.97;37.89;101399.03;15497841;28;20419;-48
2024/03/20 16:35:29;;;;;;;1.13;0.95;;;;;;;18.29;37.49;101398.50;15480793;28;20034;-48
2024/03/20 16:43:05;;;;;;;1.08;0.60;;;;;;;18.32;37.82;101403.44;15481622;28;20058;-49
2024/03/20 16:50:41;;;;;;;0.57;0.15;;;;;;;17.92;38.41;101408.97;15478689;28;20113;-49
2024/03/20 16:58:17;;;;;;;1.75;1.00;;;;;;;17.56;39.57;101406.34;15478082;28;20074;-46
2024/03/20 17:05:52;;;;;;;1.48;1.05;;;;;;;17.02;40.26;101404.88;15480286;28;20066;-48
2024/03/20 17:13:25;;;;;;;0.15;0.15;;;;;;;17.08;40.28;101409.38;15477222;28;20503;-50
2024/03/20 17:21:01;;;;;;;0.30;0.30;;;;;;;17.00;40.09;101407.84;15472943;28;20042;-51
2024/03/20 17:28:38;;;;;;;1.55;1.45;;;;;;;17.20;40.67;101410.19;15478643;28;20577;-48
2024/03/20 17:36:13;;;;;;;5.20;1.08;;;;;;;17.06;40.67;101414.22;15486447;28;20465;-51
2024/03/20 17:43:47;;;;;;;0.30;0.30;;;;;;;16.79;40.67;101409.28;15491913;28;20046;-49
2024/03/20 17:51:22;;;;;;;0.22;0.22;;;;;;;16.52;40.93;101403.44;15491952;28;20038;-48
2024/03/20 17:58:57;;;;;;;1.45;0.55;;;;;;;16.58;41.21;101415.22;15491029;28;20113;-48
2024/03/20 18:06:32;;;;;;;2.20;0.40;;;;;;;15.88;42.29;101418.56;15490713;28;20130;-55
2024/03/20 18:14:11;;;;;;;0.03;0.03;;;;;;;15.53;42.80;101399.41;15487346;28;20035;-51
2024/03/20 18:21:47;;;;;;;7.07;1.40;;;;;;;15.66;42.85;101414.66;15489749;28;20042;-46
2024/03/20 18:29:25;;;;;;;3.95;0.82;;;;;;;15.53;43.41;101410.25;15489666;28;20129;-54
2024/03/20 18:37:03;;;;;;;9.20;1.23;;;;;;;14.97;44.29;101411.25;15488747;28;20038;-50
2024/03/20 18:44:38;;;;;;;0.22;0.22;;;;;;;15.20;44.04;101422.25;15488645;28;20061;-50
2024/03/20 18:52:14;;;;;;;0.35;0.35;;;;;;;15.45;43.72;101421.34;15488213;28;20459;-48
2024/03/20 18:59:49;;;;;;;0.73;0.73;;;;;;;14.60;44.82;101427.38;15483763;28;20162;-51
2024/03/20 19:07:26;;;;;;;0.68;0.68;;;;;;;14.76;44.38;101434.94;15488639;28;20038;-52
2024/03/20 19:15:01;;;;;;;0.85;0.85;;;;;;;14.97;44.30;101433.72;15488043;28;20471;-46
2024/03/20 19:22:36;;;;;;;1.63;1.05;;;;;;;13.74;46.79;101419.78;15485324;28;20059;-53
2024/03/20 19:30:12;;;;;;;0.45;0.45;;;;;;;13.95;46.59;101418.66;15488191;28;20070;-47
2024/03/20 19:37:47;;;;;;;0.47;0.43;;;;;;;14.49;46.19;101417.28;15488391;28;20058;-50
2024/03/20 19:45:23;;;;;;;0.75;0.73;;;;;;;14.40;45.22;101421.25;15485107;28;20474;-48
2024/03/20 19:52:59;;;;;;;2.55;0.70;;;;;;;14.38;45.42;101420.66;15484938;28;20148;-50
2024/03/20 20:00:32;;;;;;;0.60;0.60;;;;;;;14.03;46.05;101424.63;15483154;28;20035;-48
2024/03/20 20:08:08;;;;;;;2.33;1.48;;;;;;;14.15;45.93;101419.34;15484435;28;20038;-48
2024/03/20 20:15:41;;;;;;;1.77;0.38;;;;;;;13.86;46.67;101423.47;15485940;28;20046;-51
2024/03/20 20:23:17;;;;;;;0.70;0.60;;;;;;;13.96;46.47;101425.69;15480244;28;20058;-51
2024/03/20 20:30:57;;;;;;;1.38;1.13;;;;;;;13.65;47.28;101419.19;15482111;28;20038;-52
2024/03/20 20:38:32;;;;;;;0.30;0.30;;;;;;;13.71;47.42;101417.53;15463622;28;20412;-53
2024/03/20 20:46:09;;;;;;;0.85;0.30;;;;;;;13.60;47.76;101420.88;15463119;28;20364;-51
2024/03/20 20:53:44;;;;;;;0.20;0.20;;;;;;;13.72;47.92;101420.00;15481384;28;20062;-54
2024/03/20 21:01:18;;;;;;;0.55;0.47;;;;;;;13.58;48.15;101417.56;15479060;28;20530;-54
2024/03/20 21:24:37;;;;;;;2.28;0.50;;;;;;;13.75;47.72;101408.75;15494715;28;20472;-50
2024/03/20 21:32:13;;;;;;;1.10;0.60;;;;;;;13.70;48.43;101419.38;15497139;28;20105;-50
2024/03/20 21:39:48;;;;;;;1.38;1.27;;;;;;;13.77;48.13;101422.88;15495240;28;20049;-52
2024/03/20 21:47:23;;;;;;;0.20;0.20;;;;;;;13.74;48.53;101426.00;15499576;28;20046;-55
2024/03/20 21:54:58;;;;;;;0.90;0.45;;;;;;;13.59;48.97;101417.34;15499112;28;20456;-52
2024/03/20 22:02:35;;;;;;;0.77;0.35;;;;;;;13.45;50.11;101423.84;15497155;28;20038;-55
2024/03/20 22:10:15;;;;;;;0.45;0.45;;;;;;;13.49;50.18;101417.81;15499045;28;20038;-53
2024/03/20 22:17:52;;;;;;;1.98;1.65;;;;;;;13.49;49.78;101417.81;15512567;23;20122;-48
2024/03/20 22:25:28;;;;;;;0.52;0.35;;;;;;;13.18;50.36;101412.25;15547912;28;20467;-52
2024/03/20 22:33:02;;;;;;;0.73;0.55;;;;;;;13.06;50.45;101405.88;15496552;28;20519;-46
2024/03/20 22:40:38;;;;;;;1.65;0.63;;;;;;;12.75;52.08;101407.34;15491239;28;20076;-47
2024/03/20 22:48:12;;;;;;;0.15;0.15;;;;;;;12.33;54.73;101408.56;15482701;28;20047;-49
2024/03/20 22:55:47;;;;;;;3.47;1.02;;;;;;;12.73;54.13;101415.66;15491013;28;20042;-47
2024/03/20 23:03:21;;;;;;;0.30;0.30;;;;;;;12.85;53.83;101415.81;15490507;28;20041;-46
2024/03/20 23:10:56;;;;;;;1.38;1.25;;;;;;;12.90;53.79;101407.13;15486721;28;20458;-49
2024/03/20 23:18:31;;;;;;;0.75;0.75;;;;;;;12.85;53.73;101396.16;15485637;28;20042;-47
2024/03/20 23:26:06;;;;;;;8.15;1.70;;;;;;;12.51;54.75;101390.78;15484612;28;20053;-49
2024/03/20 23:33:40;;;;;;;0.00;0.00;;;;;;;12.27;53.83;101386.00;15483993;28;20042;-48
2024/03/20 23:41:15;;;;;;;0.77;0.55;;;;;;;12.37;53.66;101372.13;15484353;28;20400;-48
2024/03/20 23:48:48;;;;;;;1.55;0.50;;;;;;;12.36;53.99;101375.88;15476671;28;20411;-46
2024/03/20 23:56:23;;;;;;;0.20;0.20;;;;;;;12.29;54.05;101373.16;15480557;28;20515;-52
